WetterOnline ( https://www.wetteronline.de )

Wetter aktuell Fuchshofen

Aktuelles Wetter: Nürburg-Barweiler (488m)

6-stündlich | Neueste Meldungen
Ortszeit Temperatur Wetter
Di, 07.07. 2:00 10.1° C wolkenlos
Mo, 06.07. 20:00 14.2° C leicht bewölkt
Mo, 06.07. 14:00 14.3° C bedeckt
Mo, 06.07. 8:00 10.9° C bewölkt
Mo, 06.07. 2:00 14.4° C leicht bewölkt
So, 05.07. 20:00 20.0° C wolkig
So, 05.07. 14:00 22.3° C wolkig
So, 05.07. 8:00 17.1° C bewölkt
Ortszeit Temperatur Wetter
Di, 07.07. 6:00 8.2° C wolkenlos
Di, 07.07. 5:30 7.9° C fast wolkenlos
Di, 07.07. 5:20 7.9° C fast wolkenlos
Di, 07.07. 5:10 8.0° C fast wolkenlos
Di, 07.07. 5:00 7.9° C leicht bewölkt
Di, 07.07. 4:50 7.9° C leicht bewölkt
Di, 07.07. 4:30 8.1° C leicht bewölkt
Di, 07.07. 4:00 8.4° C wolkenlos
Di, 07.07. 3:30 8.9° C wolkenlos
Di, 07.07. 3:00 9.5° C wolkenlos
Di, 07.07. 2:30 10.0° C wolkenlos
Ortszeit Relative Feuchte Sichtweite
Di, 07.07. 2:00 78% 50 km
Mo, 06.07. 20:00 61% 50 km
Mo, 06.07. 14:00 53% 45 km
Mo, 06.07. 8:00 73% 35 km
Mo, 06.07. 2:00 66% 65 km
So, 05.07. 20:00 72% 65 km
So, 05.07. 14:00 59% >70 km
So, 05.07. 8:00 85% 65 km
Ortszeit Relative Feuchte Sichtweite
Di, 07.07. 6:00 88% 45 km
Di, 07.07. 5:30 89% 40 km
Di, 07.07. 5:20 89% -
Di, 07.07. 5:10 89% -
Di, 07.07. 5:00 88% 40 km
Di, 07.07. 4:50 88% -
Di, 07.07. 4:30 88% 50 km
Di, 07.07. 4:00 86% 45 km
Di, 07.07. 3:30 84% 50 km
Di, 07.07. 3:00 81% 50 km
Di, 07.07. 2:30 79% 50 km
Ortszeit Niederschlagsmenge Niederschlagsart
Di, 07.07. 2:00 0.0 l/m2 in 6 Std. -
Mo, 06.07. 20:00 1 l/m2 in 12 Std. Regen
Mo, 06.07. 14:00 0.1 l/m2 in 6 Std. Regen
Mo, 06.07. 8:00 0.0 l/m2 in 12 Std. -
Mo, 06.07. 2:00 0.0 l/m2 in 6 Std. -
So, 05.07. 20:00 0.1 l/m2 in 12 Std. Regen
So, 05.07. 14:00 0.1 l/m2 in 6 Std. Regen
So, 05.07. 8:00 0.1 l/m2 in 12 Std. Sprühregen
Ortszeit Niederschlagsmenge Niederschlagsart
Di, 07.07. 6:00 0.0 l/m2 in 1 Std. -
Di, 07.07. 5:30 0.0 l/m2 in 1 Std. -
Di, 07.07. 5:20 keine Meldung -
Di, 07.07. 5:10 keine Meldung -
Di, 07.07. 5:00 0.0 l/m2 in 1 Std. -
Di, 07.07. 4:50 keine Meldung -
Di, 07.07. 4:30 0.0 l/m2 in 1 Std. -
Di, 07.07. 4:00 0.0 l/m2 in 1 Std. -
Di, 07.07. 3:30 0.0 l/m2 in 1 Std. -
Di, 07.07. 3:00 0.0 l/m2 in 1 Std. -
Di, 07.07. 2:30 0.0 l/m2 in 1 Std. -
Ortszeit Stärke Spitze Richtung
km/h Bft. km/h Grad Sektor
Di, 07.07. 2:00 7 2 29 220° SW
Mo, 06.07. 20:00 11 2 50 290° W
Mo, 06.07. 14:00 20 4 43 270° W
Mo, 06.07. 8:00 15 3 46 260° W
Mo, 06.07. 2:00 22 4 40 260° W
So, 05.07. 20:00 22 4 50 240° SW
So, 05.07. 14:00 25 4 54 240° SW
So, 05.07. 8:00 22 4 43 230° SW
Ortszeit Stärke Spitze Richtung
km/h Bft. km/h Grad Sektor
Di, 07.07. 6:00 6 1 11 200° S
Di, 07.07. 5:30 6 1 11 200° S
Di, 07.07. 5:20 6 1 - 200° S
Di, 07.07. 5:10 7 2 - 200° S
Di, 07.07. 5:00 7 2 11 210° SW
Di, 07.07. 4:50 7 2 - 210° SW
Di, 07.07. 4:30 4 1 7 270° W
Di, 07.07. 4:00 4 1 7 260° W
Di, 07.07. 3:30 4 1 7 260° W
Di, 07.07. 3:00 6 1 9 270° W
Di, 07.07. 2:30 7 2 11 250° W
Ortszeit Untergrenze Bedeckung Gattung
total tief tief mittel hoch
Di, 07.07. 2:00 - 0/8 0/8 - - -
Mo, 06.07. 20:00 2400 m 3/8 3/8 - - -
Mo, 06.07. 14:00 1290 m 8/8 8/8 - - -
Mo, 06.07. 8:00 660 m 7/8 7/8 - - -
Mo, 06.07. 2:00 660 m 3/8 1/8 - - -
So, 05.07. 20:00 720 m 5/8 5/8 - - -
So, 05.07. 14:00 840 m 6/8 6/8 - - -
So, 05.07. 8:00 360 m 7/8 7/8 - - -
Ortszeit Bedeckungsgrad in Achtel und Wolkenuntergrenze
Di, 07.07. 6:00 keine Wolken
Di, 07.07. 5:30 1(390m)
Di, 07.07. 5:20 1(390m)
Di, 07.07. 5:10 1(420m)
Di, 07.07. 5:00 2(450m)
Di, 07.07. 4:50 2(450m)
Di, 07.07. 4:30 2(480m)
Di, 07.07. 4:00 keine Wolken
Di, 07.07. 3:30 keine Wolken
Di, 07.07. 3:00 keine Wolken
Di, 07.07. 2:30 keine Wolken
Ortszeit Luftdruck NN (hPa) Tendenz (hPa in 3 Std.)
Di, 07.07. 2:00 1023 + 0,4
Mo, 06.07. 20:00 1020 + 0,9
Mo, 06.07. 14:00 1017 + 0,8
Mo, 06.07. 8:00 1016 + 0,8
Mo, 06.07. 2:00 1014 + 0,7
So, 05.07. 20:00 1013 - 0,5
So, 05.07. 14:00 1013 - 0,8
So, 05.07. 8:00 1014 - 0,3
Ortszeit Luftdruck NN (hPa) Tendenz (hPa in 3 Std.)
Di, 07.07. 6:00 1023 - 0,4
Di, 07.07. 5:30 1023 - 0,4
Di, 07.07. 5:20 1023 keine Meldung
Di, 07.07. 5:10 1023 keine Meldung
Di, 07.07. 5:00 1023 - 0,4
Di, 07.07. 4:50 1023 keine Meldung
Di, 07.07. 4:30 1023 - 0,5
Di, 07.07. 4:00 1023 - 0,4
Di, 07.07. 3:30 1023 - 0,3
Di, 07.07. 3:00 1023 0,0
Di, 07.07. 2:30 1023 + 0,3
Ortszeit Schneehöhe (cm)
Di, 07.07. 2:00 -
Mo, 06.07. 20:00 -
Mo, 06.07. 14:00 -
Mo, 06.07. 8:00 -
Mo, 06.07. 2:00 -
So, 05.07. 20:00 -
So, 05.07. 14:00 -
So, 05.07. 8:00 -
Ortszeit Schneehöhe (cm)
Di, 07.07. 6:00 -
Di, 07.07. 5:30 -
Di, 07.07. 5:20 -
Di, 07.07. 5:10 -
Di, 07.07. 5:00 -
Di, 07.07. 4:50 -
Di, 07.07. 4:30 -
Di, 07.07. 4:00 -
Di, 07.07. 3:30 -
Di, 07.07. 3:00 -
Di, 07.07. 2:30 -
Link zu dieser Seite / Seite empfehlen

Das Wetter in ...